sensor_id;sensor_type;location;lat;lon;timestamp;pressure;altitude;pressure_sealevel;temperature;humidity
22000;BME280;11164;48.818;2.322;2022-12-18T00:02:02;101443.41;;;-1.71;46.14
22000;BME280;11164;48.818;2.322;2022-12-18T00:04:28;101447.44;;;-1.66;45.80
22000;BME280;11164;48.818;2.322;2022-12-18T00:06:53;101443.78;;;-1.63;45.77
22000;BME280;11164;48.818;2.322;2022-12-18T00:09:20;101441.72;;;-1.72;46.25
22000;BME280;11164;48.818;2.322;2022-12-18T00:11:45;101434.63;;;-1.72;45.44
22000;BME280;11164;48.818;2.322;2022-12-18T00:14:12;101443.88;;;-1.65;45.78
22000;BME280;11164;48.818;2.322;2022-12-18T00:16:38;101443.03;;;-1.65;46.03
22000;BME280;11164;48.818;2.322;2022-12-18T00:19:03;101449.22;;;-1.52;45.31
22000;BME280;11164;48.818;2.322;2022-12-18T00:21:30;101443.63;;;-1.47;45.34
22000;BME280;11164;48.818;2.322;2022-12-18T00:23:57;101439.50;;;-1.51;45.10
22000;BME280;11164;48.818;2.322;2022-12-18T00:26:29;101447.78;;;-1.43;45.15
22000;BME280;11164;48.818;2.322;2022-12-18T00:28:58;101449.22;;;-1.52;45.01
22000;BME280;11164;48.818;2.322;2022-12-18T00:31:24;101455.19;;;-1.63;45.32
22000;BME280;11164;48.818;2.322;2022-12-18T00:33:50;101455.50;;;-1.67;45.37
22000;BME280;11164;48.818;2.322;2022-12-18T00:36:20;101447.03;;;-1.72;45.37
22000;BME280;11164;48.818;2.322;2022-12-18T00:38:47;101451.66;;;-1.76;45.05
22000;BME280;11164;48.818;2.322;2022-12-18T00:41:13;101451.44;;;-1.73;45.13
22000;BME280;11164;48.818;2.322;2022-12-18T00:43:59;101461.72;;;-1.68;45.81
22000;BME280;11164;48.818;2.322;2022-12-18T00:46:24;101471.47;;;-1.69;45.10
22000;BME280;11164;48.818;2.322;2022-12-18T00:48:50;101471.06;;;-1.63;45.72
22000;BME280;11164;48.818;2.322;2022-12-18T00:51:15;101464.00;;;-1.62;45.58
22000;BME280;11164;48.818;2.322;2022-12-18T00:53:40;101461.13;;;-1.59;45.00
22000;BME280;11164;48.818;2.322;2022-12-18T00:56:06;101455.09;;;-1.61;45.30
22000;BME280;11164;48.818;2.322;2022-12-18T00:58:31;101450.78;;;-1.62;45.51
22000;BME280;11164;48.818;2.322;2022-12-18T01:00:57;101453.94;;;-1.57;44.82
22000;BME280;11164;48.818;2.322;2022-12-18T01:03:22;101439.88;;;-1.58;45.15
22000;BME280;11164;48.818;2.322;2022-12-18T01:05:47;101433.56;;;-1.69;45.15
22000;BME280;11164;48.818;2.322;2022-12-18T01:08:12;101449.72;;;-1.60;45.13
22000;BME280;11164;48.818;2.322;2022-12-18T01:10:41;101449.44;;;-1.55;45.44
22000;BME280;11164;48.818;2.322;2022-12-18T01:13:06;101447.81;;;-1.58;45.36
22000;BME280;11164;48.818;2.322;2022-12-18T01:15:32;101437.84;;;-1.67;45.20
22000;BME280;11164;48.818;2.322;2022-12-18T01:17:57;101436.72;;;-1.77;45.68
22000;BME280;11164;48.818;2.322;2022-12-18T01:20:22;101438.22;;;-1.73;45.45
22000;BME280;11164;48.818;2.322;2022-12-18T01:22:48;101430.84;;;-1.68;45.33
22000;BME280;11164;48.818;2.322;2022-12-18T01:25:13;101419.72;;;-1.73;45.49
22000;BME280;11164;48.818;2.322;2022-12-18T01:27:38;101432.19;;;-1.75;45.32
22000;BME280;11164;48.818;2.322;2022-12-18T01:30:04;101434.09;;;-1.77;45.36
22000;BME280;11164;48.818;2.322;2022-12-18T01:32:31;101437.28;;;-1.72;44.78
22000;BME280;11164;48.818;2.322;2022-12-18T01:34:56;101437.38;;;-1.74;45.16
22000;BME280;11164;48.818;2.322;2022-12-18T01:37:21;101435.88;;;-1.92;46.00
22000;BME280;11164;48.818;2.322;2022-12-18T01:39:47;101437.75;;;-1.80;45.50
22000;BME280;11164;48.818;2.322;2022-12-18T01:42:14;101440.16;;;-1.89;45.85
22000;BME280;11164;48.818;2.322;2022-12-18T01:49:54;101425.41;;;-1.94;45.89
22000;BME280;11164;48.818;2.322;2022-12-18T01:52:21;101429.06;;;-1.82;45.62
22000;BME280;11164;48.818;2.322;2022-12-18T01:54:48;101416.81;;;-1.97;45.65
22000;BME280;11164;48.818;2.322;2022-12-18T01:57:15;101415.41;;;-1.88;45.73
22000;BME280;11164;48.818;2.322;2022-12-18T01:59:42;101416.34;;;-1.89;45.82
22000;BME280;11164;48.818;2.322;2022-12-18T02:02:10;101418.06;;;-2.03;45.71
22000;BME280;11164;48.818;2.322;2022-12-18T02:04:36;101398.06;;;-2.07;45.88
22000;BME280;11164;48.818;2.322;2022-12-18T02:09:41;101411.44;;;-1.81;45.55
22000;BME280;11164;48.818;2.322;2022-12-18T02:12:13;101397.06;;;-1.77;45.31
22000;BME280;11164;48.818;2.322;2022-12-18T02:27:50;101387.00;;;-1.99;46.06
22000;BME280;11164;48.818;2.322;2022-12-18T02:30:17;101384.84;;;-1.93;45.30
22000;BME280;11164;48.818;2.322;2022-12-18T02:32:51;101385.22;;;-1.99;46.24
22000;BME280;11164;48.818;2.322;2022-12-18T02:35:21;101388.91;;;-2.01;47.34
22000;BME280;11164;48.818;2.322;2022-12-18T02:37:47;101376.75;;;-2.04;46.53
22000;BME280;11164;48.818;2.322;2022-12-18T02:40:14;101384.00;;;-2.07;46.99
22000;BME280;11164;48.818;2.322;2022-12-18T02:42:40;101381.00;;;-2.16;45.97
22000;BME280;11164;48.818;2.322;2022-12-18T02:45:06;101384.22;;;-2.10;46.58
22000;BME280;11164;48.818;2.322;2022-12-18T02:47:36;101369.66;;;-2.03;45.85
22000;BME280;11164;48.818;2.322;2022-12-18T02:52:42;101372.31;;;-2.03;46.02
22000;BME280;11164;48.818;2.322;2022-12-18T02:55:40;101364.97;;;-2.13;46.35
22000;BME280;11164;48.818;2.322;2022-12-18T02:58:19;101364.28;;;-2.02;46.37
22000;BME280;11164;48.818;2.322;2022-12-18T03:00:55;101347.47;;;-2.01;46.24
22000;BME280;11164;48.818;2.322;2022-12-18T03:03:30;101363.16;;;-2.12;46.55
22000;BME280;11164;48.818;2.322;2022-12-18T03:06:06;101356.91;;;-2.11;46.52
22000;BME280;11164;48.818;2.322;2022-12-18T03:08:39;101352.59;;;-2.12;46.56
22000;BME280;11164;48.818;2.322;2022-12-18T03:11:08;101358.06;;;-2.15;46.88
22000;BME280;11164;48.818;2.322;2022-12-18T03:13:44;101355.72;;;-2.20;46.85
22000;BME280;11164;48.818;2.322;2022-12-18T03:16:25;101353.34;;;-2.10;46.17
22000;BME280;11164;48.818;2.322;2022-12-18T03:19:05;101354.41;;;-2.13;46.32
22000;BME280;11164;48.818;2.322;2022-12-18T03:21:58;101367.31;;;-2.08;46.28
22000;BME280;11164;48.818;2.322;2022-12-18T03:24:27;101367.41;;;-2.09;45.96
22000;BME280;11164;48.818;2.322;2022-12-18T03:27:00;101372.41;;;-2.05;45.56
22000;BME280;11164;48.818;2.322;2022-12-18T03:29:43;101366.94;;;-2.02;45.90
22000;BME280;11164;48.818;2.322;2022-12-18T03:32:14;101369.00;;;-2.07;45.59
22000;BME280;11164;48.818;2.322;2022-12-18T03:34:42;101361.66;;;-2.16;45.76
22000;BME280;11164;48.818;2.322;2022-12-18T03:37:09;101364.97;;;-2.13;45.33
22000;BME280;11164;48.818;2.322;2022-12-18T03:39:35;101367.91;;;-2.17;45.47
22000;BME280;11164;48.818;2.322;2022-12-18T03:42:14;101364.41;;;-2.18;46.07
22000;BME280;11164;48.818;2.322;2022-12-18T03:47:16;101370.22;;;-1.98;45.54
22000;BME280;11164;48.818;2.322;2022-12-18T03:54:45;101342.28;;;-2.02;44.93
22000;BME280;11164;48.818;2.322;2022-12-18T03:57:20;101342.88;;;-2.12;46.12
22000;BME280;11164;48.818;2.322;2022-12-18T03:59:49;101336.09;;;-2.16;45.31
22000;BME280;11164;48.818;2.322;2022-12-18T04:02:17;101338.03;;;-2.05;45.16
22000;BME280;11164;48.818;2.322;2022-12-18T04:04:44;101325.78;;;-2.06;45.32
22000;BME280;11164;48.818;2.322;2022-12-18T04:07:13;101330.50;;;-2.11;45.74
22000;BME280;11164;48.818;2.322;2022-12-18T04:09:38;101329.00;;;-2.15;45.49
22000;BME280;11164;48.818;2.322;2022-12-18T04:12:04;101314.50;;;-2.22;46.05
22000;BME280;11164;48.818;2.322;2022-12-18T04:14:29;101324.31;;;-2.24;46.17
22000;BME280;11164;48.818;2.322;2022-12-18T04:16:55;101322.56;;;-2.11;46.13
22000;BME280;11164;48.818;2.322;2022-12-18T04:19:20;101321.91;;;-2.15;46.21
22000;BME280;11164;48.818;2.322;2022-12-18T04:21:45;101331.81;;;-2.04;46.03
22000;BME280;11164;48.818;2.322;2022-12-18T04:24:10;101340.78;;;-2.06;45.92
22000;BME280;11164;48.818;2.322;2022-12-18T04:26:36;101334.19;;;-2.14;46.23
22000;BME280;11164;48.818;2.322;2022-12-18T04:29:01;101330.81;;;-2.16;46.59
22000;BME280;11164;48.818;2.322;2022-12-18T04:31:26;101325.75;;;-2.33;46.56
22000;BME280;11164;48.818;2.322;2022-12-18T04:33:52;101326.66;;;-2.20;45.77
22000;BME280;11164;48.818;2.322;2022-12-18T04:36:17;101330.50;;;-2.11;45.98
22000;BME280;11164;48.818;2.322;2022-12-18T04:38:43;101321.63;;;-2.10;45.85
22000;BME280;11164;48.818;2.322;2022-12-18T04:41:08;101329.75;;;-2.13;45.71
22000;BME280;11164;48.818;2.322;2022-12-18T04:43:33;101319.38;;;-2.16;45.84
22000;BME280;11164;48.818;2.322;2022-12-18T04:46:06;101345.78;;;-2.16;46.27
22000;BME280;11164;48.818;2.322;2022-12-18T04:48:32;101343.53;;;-2.08;45.45
22000;BME280;11164;48.818;2.322;2022-12-18T04:50:58;101338.53;;;-2.13;45.95
22000;BME280;11164;48.818;2.322;2022-12-18T04:53:24;101345.44;;;-2.24;46.12
22000;BME280;11164;48.818;2.322;2022-12-18T04:55:49;101339.13;;;-2.22;46.39
22000;BME280;11164;48.818;2.322;2022-12-18T04:58:14;101345.44;;;-2.24;46.08
22000;BME280;11164;48.818;2.322;2022-12-18T05:00:40;101343.75;;;-2.25;46.25
22000;BME280;11164;48.818;2.322;2022-12-18T05:03:05;101339.22;;;-2.23;45.89
22000;BME280;11164;48.818;2.322;2022-12-18T05:05:30;101332.59;;;-2.16;46.20
22000;BME280;11164;48.818;2.322;2022-12-18T05:07:56;101337.78;;;-2.15;45.98
22000;BME280;11164;48.818;2.322;2022-12-18T05:10:21;101345.22;;;-2.21;46.27
22000;BME280;11164;48.818;2.322;2022-12-18T05:12:46;101349.03;;;-2.25;45.89
22000;BME280;11164;48.818;2.322;2022-12-18T05:15:27;101352.06;;;-2.32;46.43
22000;BME280;11164;48.818;2.322;2022-12-18T05:17:52;101353.56;;;-2.27;45.97
22000;BME280;11164;48.818;2.322;2022-12-18T05:20:17;101356.84;;;-2.24;45.59
22000;BME280;11164;48.818;2.322;2022-12-18T05:22:43;101346.09;;;-2.21;45.56
22000;BME280;11164;48.818;2.322;2022-12-18T05:25:09;101356.34;;;-2.16;45.98
22000;BME280;11164;48.818;2.322;2022-12-18T05:27:34;101360.38;;;-2.38;46.07
22000;BME280;11164;48.818;2.322;2022-12-18T05:29:59;101371.41;;;-2.31;46.01
22000;BME280;11164;48.818;2.322;2022-12-18T05:32:24;101376.09;;;-2.22;45.65
22000;BME280;11164;48.818;2.322;2022-12-18T05:34:50;101363.00;;;-2.38;46.06
22000;BME280;11164;48.818;2.322;2022-12-18T05:37:15;101383.66;;;-2.30;45.72
22000;BME280;11164;48.818;2.322;2022-12-18T05:39:40;101376.69;;;-2.31;46.24
22000;BME280;11164;48.818;2.322;2022-12-18T05:42:06;101374.28;;;-2.21;45.80
22000;BME280;11164;48.818;2.322;2022-12-18T05:44:31;101368.47;;;-2.26;45.94
22000;BME280;11164;48.818;2.322;2022-12-18T05:46:56;101362.50;;;-2.30;45.74
22000;BME280;11164;48.818;2.322;2022-12-18T05:49:22;101354.50;;;-2.28;46.25
22000;BME280;11164;48.818;2.322;2022-12-18T05:51:47;101355.81;;;-2.21;45.98
22000;BME280;11164;48.818;2.322;2022-12-18T05:54:13;101357.41;;;-2.19;46.05
22000;BME280;11164;48.818;2.322;2022-12-18T05:56:38;101347.53;;;-2.29;46.11
22000;BME280;11164;48.818;2.322;2022-12-18T05:59:03;101341.13;;;-2.40;45.81
22000;BME280;11164;48.818;2.322;2022-12-18T06:01:29;101332.47;;;-2.42;46.30
22000;BME280;11164;48.818;2.322;2022-12-18T06:03:54;101332.47;;;-2.42;46.40
22000;BME280;11164;48.818;2.322;2022-12-18T06:06:25;101327.53;;;-2.34;46.23
22000;BME280;11164;48.818;2.322;2022-12-18T06:08:51;101326.13;;;-2.39;46.28
22000;BME280;11164;48.818;2.322;2022-12-18T06:11:20;101330.25;;;-2.35;46.43
22000;BME280;11164;48.818;2.322;2022-12-18T06:13:46;101327.63;;;-2.21;45.87
22000;BME280;11164;48.818;2.322;2022-12-18T06:16:11;101321.00;;;-2.14;45.39
22000;BME280;11164;48.818;2.322;2022-12-18T06:18:37;101328.63;;;-2.09;45.97
22000;BME280;11164;48.818;2.322;2022-12-18T06:21:02;101328.81;;;-2.12;45.24
22000;BME280;11164;48.818;2.322;2022-12-18T06:23:28;101333.53;;;-2.17;46.10
22000;BME280;11164;48.818;2.322;2022-12-18T06:25:53;101344.22;;;-2.19;46.23
22000;BME280;11164;48.818;2.322;2022-12-18T06:28:19;101328.94;;;-2.28;45.88
22000;BME280;11164;48.818;2.322;2022-12-18T06:30:45;101331.09;;;-2.20;45.96
22000;BME280;11164;48.818;2.322;2022-12-18T06:33:11;101324.56;;;-2.15;45.69
22000;BME280;11164;48.818;2.322;2022-12-18T06:35:37;101337.50;;;-2.10;45.91
22000;BME280;11164;48.818;2.322;2022-12-18T06:38:02;101331.88;;;-2.33;46.03
22000;BME280;11164;48.818;2.322;2022-12-18T06:40:28;101334.69;;;-2.36;46.07
22000;BME280;11164;48.818;2.322;2022-12-18T06:42:54;101324.13;;;-2.36;46.17
22000;BME280;11164;48.818;2.322;2022-12-18T06:45:19;101303.69;;;-2.46;46.35
22000;BME280;11164;48.818;2.322;2022-12-18T06:47:44;101324.88;;;-2.34;45.83
22000;BME280;11164;48.818;2.322;2022-12-18T06:50:10;101332.72;;;-2.46;46.27
22000;BME280;11164;48.818;2.322;2022-12-18T06:52:36;101326.25;;;-2.55;46.04
22000;BME280;11164;48.818;2.322;2022-12-18T06:55:02;101323.59;;;-2.55;46.36
22000;BME280;11164;48.818;2.322;2022-12-18T06:57:27;101301.69;;;-2.43;45.95
22000;BME280;11164;48.818;2.322;2022-12-18T06:59:52;101311.75;;;-2.35;46.11
22000;BME280;11164;48.818;2.322;2022-12-18T07:02:18;101310.19;;;-2.38;45.92
22000;BME280;11164;48.818;2.322;2022-12-18T07:04:43;101301.03;;;-2.46;46.10
22000;BME280;11164;48.818;2.322;2022-12-18T07:07:08;101301.88;;;-2.46;46.38
22000;BME280;11164;48.818;2.322;2022-12-18T07:09:34;101307.81;;;-2.42;46.19
22000;BME280;11164;48.818;2.322;2022-12-18T07:11:59;101305.03;;;-2.54;46.47
22000;BME280;11164;48.818;2.322;2022-12-18T07:14:24;101310.41;;;-2.55;46.26
22000;BME280;11164;48.818;2.322;2022-12-18T07:16:50;101309.34;;;-2.67;46.52
22000;BME280;11164;48.818;2.322;2022-12-18T07:19:15;101303.41;;;-2.71;46.50
22000;BME280;11164;48.818;2.322;2022-12-18T07:21:40;101286.84;;;-2.87;47.22
22000;BME280;11164;48.818;2.322;2022-12-18T07:24:06;101287.09;;;-2.77;46.83
22000;BME280;11164;48.818;2.322;2022-12-18T07:26:31;101294.00;;;-2.75;46.99
22000;BME280;11164;48.818;2.322;2022-12-18T07:28:57;101289.75;;;-2.77;46.85
22000;BME280;11164;48.818;2.322;2022-12-18T07:31:23;101295.88;;;-2.62;46.58
22000;BME280;11164;48.818;2.322;2022-12-18T07:33:50;101299.84;;;-2.55;46.28
22000;BME280;11164;48.818;2.322;2022-12-18T07:36:15;101299.84;;;-2.55;46.18
22000;BME280;11164;48.818;2.322;2022-12-18T07:38:41;101308.50;;;-2.53;46.61
22000;BME280;11164;48.818;2.322;2022-12-18T07:41:11;101319.53;;;-2.46;46.70
22000;BME280;11164;48.818;2.322;2022-12-18T07:43:37;101303.69;;;-2.46;45.67
22000;BME280;11164;48.818;2.322;2022-12-18T07:46:03;101332.16;;;-2.37;46.01
22000;BME280;11164;48.818;2.322;2022-12-18T07:48:30;101338.00;;;-2.32;45.67
22000;BME280;11164;48.818;2.322;2022-12-18T07:51:05;101335.75;;;-2.38;46.50
22000;BME280;11164;48.818;2.322;2022-12-18T07:53:32;101333.84;;;-2.36;46.02
22000;BME280;11164;48.818;2.322;2022-12-18T07:56:00;101326.78;;;-2.36;46.36
22000;BME280;11164;48.818;2.322;2022-12-18T07:58:27;101313.59;;;-2.50;46.06
22000;BME280;11164;48.818;2.322;2022-12-18T08:00:52;101329.91;;;-2.58;46.26
22000;BME280;11164;48.818;2.322;2022-12-18T08:03:18;101314.63;;;-2.38;46.46
22000;BME280;11164;48.818;2.322;2022-12-18T08:05:43;101308.00;;;-2.31;45.76
22000;BME280;11164;48.818;2.322;2022-12-18T08:08:09;101313.19;;;-2.29;45.73
22000;BME280;11164;48.818;2.322;2022-12-18T08:10:34;101312.22;;;-2.28;45.87
22000;BME280;11164;48.818;2.322;2022-12-18T08:12:59;101303.66;;;-2.18;46.26
22000;BME280;11164;48.818;2.322;2022-12-18T08:15:25;101310.00;;;-2.07;46.30
22000;BME280;11164;48.818;2.322;2022-12-18T08:17:50;101312.53;;;-1.91;45.89
22000;BME280;11164;48.818;2.322;2022-12-18T08:20:15;101318.47;;;-1.88;46.01
22000;BME280;11164;48.818;2.322;2022-12-18T08:22:43;101333.06;;;-1.82;46.06
22000;BME280;11164;48.818;2.322;2022-12-18T08:25:09;101318.75;;;-1.93;45.88
22000;BME280;11164;48.818;2.322;2022-12-18T08:27:34;101328.06;;;-1.87;46.22
22000;BME280;11164;48.818;2.322;2022-12-18T08:30:00;101338.09;;;-1.92;46.18
22000;BME280;11164;48.818;2.322;2022-12-18T08:32:26;101329.53;;;-1.96;45.99
22000;BME280;11164;48.818;2.322;2022-12-18T08:34:52;101336.50;;;-1.95;46.42
22000;BME280;11164;48.818;2.322;2022-12-18T08:37:17;101342.03;;;-1.85;45.99
22000;BME280;11164;48.818;2.322;2022-12-18T08:39:42;101333.63;;;-1.77;45.50
22000;BME280;11164;48.818;2.322;2022-12-18T08:42:08;101342.00;;;-1.70;45.52
22000;BME280;11164;48.818;2.322;2022-12-18T08:44:52;101331.22;;;-1.67;45.79
22000;BME280;11164;48.818;2.322;2022-12-18T08:47:17;101340.81;;;-1.79;46.18
22000;BME280;11164;48.818;2.322;2022-12-18T08:49:42;101348.97;;;-1.69;45.49
22000;BME280;11164;48.818;2.322;2022-12-18T08:52:08;101350.38;;;-1.64;46.12
22000;BME280;11164;48.818;2.322;2022-12-18T08:54:33;101359.88;;;-1.74;45.92
22000;BME280;11164;48.818;2.322;2022-12-18T08:56:59;101372.16;;;-1.87;45.77
22000;BME280;11164;48.818;2.322;2022-12-18T08:59:24;101373.66;;;-1.83;46.00
22000;BME280;11164;48.818;2.322;2022-12-18T09:01:50;101357.41;;;-1.77;46.25
22000;BME280;11164;48.818;2.322;2022-12-18T09:04:15;101347.97;;;-1.54;45.44
22000;BME280;11164;48.818;2.322;2022-12-18T09:06:41;101345.78;;;-1.34;45.81
22000;BME280;11164;48.818;2.322;2022-12-18T09:09:06;101335.97;;;-1.32;45.18
22000;BME280;11164;48.818;2.322;2022-12-18T09:11:32;101331.53;;;-1.19;44.89
22000;BME280;11164;48.818;2.322;2022-12-18T09:13:59;101336.81;;;-1.19;45.56
22000;BME280;11164;48.818;2.322;2022-12-18T09:16:27;101341.81;;;-1.27;45.22
22000;BME280;11164;48.818;2.322;2022-12-18T09:18:56;101339.28;;;-1.16;45.28
22000;BME280;11164;48.818;2.322;2022-12-18T09:21:26;101354.41;;;-1.05;45.22
22000;BME280;11164;48.818;2.322;2022-12-18T09:23:54;101352.63;;;-1.05;45.52
22000;BME280;11164;48.818;2.322;2022-12-18T09:26:20;101348.59;;;-1.10;45.02
22000;BME280;11164;48.818;2.322;2022-12-18T09:28:46;101336.44;;;-1.00;45.50
22000;BME280;11164;48.818;2.322;2022-12-18T09:31:12;101328.47;;;-1.00;44.84
22000;BME280;11164;48.818;2.322;2022-12-18T09:33:38;101344.78;;;-1.06;45.24
22000;BME280;11164;48.818;2.322;2022-12-18T09:36:05;101323.63;;;-1.06;45.16
22000;BME280;11164;48.818;2.322;2022-12-18T09:38:31;101329.66;;;-1.04;45.35
22000;BME280;11164;48.818;2.322;2022-12-18T09:41:13;101331.56;;;-0.93;44.87
22000;BME280;11164;48.818;2.322;2022-12-18T09:43:45;101323.41;;;-1.03;45.34
22000;BME280;11164;48.818;2.322;2022-12-18T09:46:18;101332.94;;;-1.13;45.80
22000;BME280;11164;48.818;2.322;2022-12-18T09:48:47;101336.56;;;-0.89;45.36
22000;BME280;11164;48.818;2.322;2022-12-18T09:51:18;101336.34;;;-0.73;45.59
22000;BME280;11164;48.818;2.322;2022-12-18T09:53:50;101329.75;;;-0.67;45.42
22000;BME280;11164;48.818;2.322;2022-12-18T09:56:19;101327.72;;;-0.64;45.53
22000;BME280;11164;48.818;2.322;2022-12-18T09:58:55;101324.47;;;-0.54;44.93
22000;BME280;11164;48.818;2.322;2022-12-18T10:01:22;101321.56;;;-0.38;44.70
22000;BME280;11164;48.818;2.322;2022-12-18T10:03:48;101326.44;;;-0.08;44.71
22000;BME280;11164;48.818;2.322;2022-12-18T10:06:49;101309.19;;;-0.14;44.10
22000;BME280;11164;48.818;2.322;2022-12-18T10:09:37;101324.84;;;-0.35;45.25
22000;BME280;11164;48.818;2.322;2022-12-18T10:15:01;101320.47;;;-0.36;45.12
22000;BME280;11164;48.818;2.322;2022-12-18T10:17:51;101315.13;;;-0.10;44.63
22000;BME280;11164;48.818;2.322;2022-12-18T10:20:51;101320.81;;;-0.04;44.39
22000;BME280;11164;48.818;2.322;2022-12-18T10:26:03;101304.94;;;0.21;43.91
22000;BME280;11164;48.818;2.322;2022-12-18T10:28:30;101316.59;;;0.18;45.13
22000;BME280;11164;48.818;2.322;2022-12-18T10:30:56;101294.25;;;0.33;44.72
22000;BME280;11164;48.818;2.322;2022-12-18T10:33:27;101301.88;;;0.49;44.92
22000;BME280;11164;48.818;2.322;2022-12-18T10:35:53;101294.38;;;0.79;44.78
22000;BME280;11164;48.818;2.322;2022-12-18T10:40:53;101301.50;;;0.89;44.42
22000;BME280;11164;48.818;2.322;2022-12-18T10:46:12;101294.19;;;1.04;43.33
22000;BME280;11164;48.818;2.322;2022-12-18T10:48:54;101299.03;;;1.11;44.05
22000;BME280;11164;48.818;2.322;2022-12-18T10:51:21;101291.03;;;0.88;44.48
22000;BME280;11164;48.818;2.322;2022-12-18T10:56:25;101276.97;;;0.63;45.11
22000;BME280;11164;48.818;2.322;2022-12-18T11:01:23;101284.84;;;0.76;45.18
22000;BME280;11164;48.818;2.322;2022-12-18T11:06:23;101289.44;;;0.85;45.18
22000;BME280;11164;48.818;2.322;2022-12-18T11:09:21;101283.75;;;0.79;44.09
22000;BME280;11164;48.818;2.322;2022-12-18T11:11:51;101276.81;;;1.00;44.49
22000;BME280;11164;48.818;2.322;2022-12-18T11:16:48;101278.25;;;1.27;44.36
22000;BME280;11164;48.818;2.322;2022-12-18T11:19:33;101271.38;;;1.24;42.00
22000;BME280;11164;48.818;2.322;2022-12-18T11:22:00;101271.13;;;1.16;44.45
22000;BME280;11164;48.818;2.322;2022-12-18T11:24:30;101269.81;;;1.22;44.65
22000;BME280;11164;48.818;2.322;2022-12-18T11:26:58;101267.50;;;1.06;44.38
22000;BME280;11164;48.818;2.322;2022-12-18T11:29:39;101265.09;;;1.25;44.21
22000;BME280;11164;48.818;2.322;2022-12-18T11:32:32;101256.75;;;1.19;43.23
22000;BME280;11164;48.818;2.322;2022-12-18T11:35:15;101242.16;;;0.90;43.72
22000;BME280;11164;48.818;2.322;2022-12-18T11:37:43;101248.91;;;1.06;44.81
22000;BME280;11164;48.818;2.322;2022-12-18T11:40:17;101247.59;;;1.00;44.32
22000;BME280;11164;48.818;2.322;2022-12-18T11:42:50;101243.84;;;1.03;44.86
22000;BME280;11164;48.818;2.322;2022-12-18T11:45:34;101246.13;;;1.19;44.15
22000;BME280;11164;48.818;2.322;2022-12-18T11:48:04;101238.63;;;1.24;44.67
22000;BME280;11164;48.818;2.322;2022-12-18T11:50:47;101229.97;;;1.11;44.25
22000;BME280;11164;48.818;2.322;2022-12-18T11:53:13;101225.84;;;1.29;44.36
22000;BME280;11164;48.818;2.322;2022-12-18T11:58:29;101216.91;;;1.30;43.12
22000;BME280;11164;48.818;2.322;2022-12-18T12:15:32;101207.16;;;2.07;43.90
22000;BME280;11164;48.818;2.322;2022-12-18T12:18:40;101204.44;;;1.97;43.25
22000;BME280;11164;48.818;2.322;2022-12-18T12:21:23;101197.38;;;2.07;42.96
22000;BME280;11164;48.818;2.322;2022-12-18T12:26:55;101194.09;;;2.15;43.45
22000;BME280;11164;48.818;2.322;2022-12-18T12:29:26;101189.41;;;2.28;40.75
22000;BME280;11164;48.818;2.322;2022-12-18T12:32:12;101180.38;;;2.19;43.72
22000;BME280;11164;48.818;2.322;2022-12-18T12:37:36;101177.13;;;2.16;44.39
22000;BME280;11164;48.818;2.322;2022-12-18T12:40:05;101182.19;;;2.19;44.40
22000;BME280;11164;48.818;2.322;2022-12-18T12:42:44;101186.44;;;2.43;43.17
22000;BME280;11164;48.818;2.322;2022-12-18T12:46:16;101190.06;;;2.41;44.20
22000;BME280;11164;48.818;2.322;2022-12-18T12:48:42;101185.81;;;2.60;42.76
22000;BME280;11164;48.818;2.322;2022-12-18T12:51:25;101192.25;;;2.57;43.24
22000;BME280;11164;48.818;2.322;2022-12-18T12:53:51;101189.84;;;2.54;43.87
22000;BME280;11164;48.818;2.322;2022-12-18T12:56:20;101185.97;;;2.37;43.94
22000;BME280;11164;48.818;2.322;2022-12-18T13:01:40;101176.47;;;2.66;41.68
22000;BME280;11164;48.818;2.322;2022-12-18T13:04:20;101179.03;;;2.46;44.19
22000;BME280;11164;48.818;2.322;2022-12-18T13:07:05;101180.81;;;2.67;44.03
22000;BME280;11164;48.818;2.322;2022-12-18T13:09:32;101169.75;;;2.71;43.71
22000;BME280;11164;48.818;2.322;2022-12-18T13:12:08;101173.22;;;2.62;43.74
22000;BME280;11164;48.818;2.322;2022-12-18T13:15:20;101165.97;;;2.43;43.59
22000;BME280;11164;48.818;2.322;2022-12-18T13:17:46;101163.38;;;2.53;43.85
22000;BME280;11164;48.818;2.322;2022-12-18T13:20:13;101157.56;;;2.69;44.57
22000;BME280;11164;48.818;2.322;2022-12-18T13:22:46;101158.78;;;2.65;43.97
22000;BME280;11164;48.818;2.322;2022-12-18T13:30:48;101144.19;;;2.59;43.56
22000;BME280;11164;48.818;2.322;2022-12-18T13:38:34;101136.84;;;2.72;43.62
22000;BME280;11164;48.818;2.322;2022-12-18T13:41:21;101136.91;;;2.61;42.79
22000;BME280;11164;48.818;2.322;2022-12-18T13:49:02;101125.34;;;2.72;43.97
22000;BME280;11164;48.818;2.322;2022-12-18T13:51:31;101128.00;;;2.72;43.58
22000;BME280;11164;48.818;2.322;2022-12-18T13:54:00;101117.06;;;2.75;44.10
22000;BME280;11164;48.818;2.322;2022-12-18T13:56:28;101114.47;;;2.54;44.06
22000;BME280;11164;48.818;2.322;2022-12-18T13:59:38;101100.22;;;2.65;42.68
22000;BME280;11164;48.818;2.322;2022-12-18T14:02:15;101096.59;;;2.66;43.92
22000;BME280;11164;48.818;2.322;2022-12-18T14:04:45;101099.88;;;2.79;44.47
22000;BME280;11164;48.818;2.322;2022-12-18T14:07:19;101101.38;;;2.72;43.97
22000;BME280;11164;48.818;2.322;2022-12-18T14:09:51;101090.63;;;2.83;43.88
22000;BME280;11164;48.818;2.322;2022-12-18T14:12:31;101093.97;;;2.85;43.17
22000;BME280;11164;48.818;2.322;2022-12-18T14:17:54;101093.59;;;2.90;42.35
22000;BME280;11164;48.818;2.322;2022-12-18T14:20:20;101096.91;;;2.82;44.07
22000;BME280;11164;48.818;2.322;2022-12-18T14:22:47;101104.38;;;2.57;44.86
22000;BME280;11164;48.818;2.322;2022-12-18T14:27:47;101088.78;;;2.74;43.57
22000;BME280;11164;48.818;2.322;2022-12-18T14:33:14;101085.47;;;2.91;43.82
22000;BME280;11164;48.818;2.322;2022-12-18T14:35:52;101078.59;;;2.98;43.74
22000;BME280;11164;48.818;2.322;2022-12-18T14:38:38;101083.97;;;3.08;43.40
22000;BME280;11164;48.818;2.322;2022-12-18T14:41:15;101094.03;;;3.05;43.15
22000;BME280;11164;48.818;2.322;2022-12-18T14:43:42;101092.66;;;3.10;43.86
22000;BME280;11164;48.818;2.322;2022-12-18T14:48:59;101078.47;;;3.10;43.52
22000;BME280;11164;48.818;2.322;2022-12-18T14:51:26;101072.31;;;3.09;44.19